Time;durP1;ratioP1;P1;durP2;ratioP2;P2;SDS_P1;SDS_P2;PMS_P1;PMS_P2;Temp;Humidity;BMP_temperature;BMP_pressure;BME280_temperature;BME280_humidity;BME280_pressure;Samples;Min_cycle;Max_cycle;Signal;HPM_P1;HPM_P2
2022/05/20 00:01:14;;;;;;;1.45;1.00;;;;;;;11.07;75.22;101644.58;1953151;72;21034;-59
2022/05/20 00:03:44;;;;;;;1.57;0.62;;;;;;;11.09;74.90;101626.49;1954741;72;21019;-64
2022/05/20 00:06:13;;;;;;;2.52;0.88;;;;;;;11.10;74.78;101633.94;1951592;73;21498;-64
2022/05/20 00:08:42;;;;;;;2.08;0.90;;;;;;;11.07;74.79;101632.26;1952921;72;21148;-62
2022/05/20 00:11:11;;;;;;;1.67;0.70;;;;;;;11.07;74.79;101632.26;1954688;72;20991;-64
2022/05/20 00:13:39;;;;;;;1.92;0.72;;;;;;;11.09;74.62;101628.27;1953856;72;21419;-65
2022/05/20 00:16:08;;;;;;;1.10;0.75;;;;;;;11.07;74.47;101623.50;1954040;72;21120;-68
2022/05/20 00:18:37;;;;;;;1.80;1.10;;;;;;;11.04;74.33;101628.38;1955661;72;21109;-64
2022/05/20 00:21:06;;;;;;;1.30;0.98;;;;;;;11.01;74.23;101626.70;1919259;75;21422;-64
2022/05/20 00:23:35;;;;;;;1.77;1.17;;;;;;;10.97;74.21;101631.66;1948825;73;21086;-60
2022/05/20 00:26:04;;;;;;;1.30;0.72;;;;;;;10.94;74.27;101615.05;1953276;72;21023;-61
2022/05/20 00:28:33;;;;;;;1.30;1.10;;;;;;;10.93;74.22;101623.85;1953285;73;21042;-63
2022/05/20 00:31:08;;;;;;;1.90;1.15;;;;;;;10.90;74.26;101627.88;1953041;73;21106;-64
2022/05/20 00:33:38;;;;;;;2.27;1.10;;;;;;;10.88;74.34;101628.37;1955804;72;21539;-64
2022/05/20 00:36:07;;;;;;;3.60;1.25;;;;;;;10.86;74.40;101623.59;1953015;73;21112;-64
2022/05/20 00:38:36;;;;;;;2.87;1.20;;;;;;;10.85;74.36;101628.47;1953014;73;21027;-64
2022/05/20 00:41:07;;;;;;;3.33;1.00;;;;;;;10.82;74.41;101625.44;1953006;73;21566;-64
2022/05/20 00:43:41;;;;;;;2.22;1.15;;;;;;;10.77;74.46;101633.48;1927725;72;21101;-66
2022/05/20 00:46:13;;;;;;;1.87;1.22;;;;;;;10.73;74.49;101627.00;1925976;74;21109;-66
2022/05/20 00:48:42;;;;;;;4.80;1.20;;;;;;;10.66;74.57;101622.36;1942717;74;21032;-66
2022/05/20 00:51:19;;;;;;;0.78;0.57;;;;;;;10.64;74.55;101628.08;1942954;74;21012;-66
2022/05/20 00:54:03;;;;;;;3.15;1.52;;;;;;;10.61;74.52;101628.19;1937178;74;21012;-61
2022/05/20 00:56:37;;;;;;;3.60;1.30;;;;;;;10.58;74.53;101625.62;1937947;73;21011;-64
2022/05/20 00:59:09;;;;;;;1.80;1.37;;;;;;;10.57;74.56;101623.91;1915891;74;21105;-62
2022/05/20 01:01:38;;;;;;;1.82;1.32;;;;;;;10.56;74.44;101625.65;1924191;74;21113;-62
2022/05/20 01:04:06;;;;;;;1.85;1.10;;;;;;;10.56;74.35;101627.42;1924004;74;21125;-60
2022/05/20 01:06:35;;;;;;;1.30;1.10;;;;;;;10.54;74.29;101622.19;1926187;73;21113;-60
2022/05/20 01:09:05;;;;;;;1.07;0.98;;;;;;;10.53;74.25;101624.86;1891300;75;21067;-60
2022/05/20 01:11:35;;;;;;;3.25;1.65;;;;;;;10.52;74.18;101623.14;1891278;76;21483;-59
2022/05/20 01:14:04;;;;;;;3.10;1.00;;;;;;;10.51;74.17;101625.34;1891445;76;21067;-60
2022/05/20 01:16:34;;;;;;;1.70;1.07;;;;;;;10.49;74.12;101631.11;1891427;76;21034;-64
2022/05/20 01:19:03;;;;;;;3.08;1.32;;;;;;;10.48;74.11;101622.81;1891214;76;21069;-62
2022/05/20 01:21:32;;;;;;;1.87;1.60;;;;;;;10.47;74.10;101623.70;1900634;73;21145;-60
2022/05/20 01:24:04;;;;;;;2.55;1.15;;;;;;;10.47;74.09;101632.92;1962031;73;21026;-59
2022/05/20 01:26:32;;;;;;;1.80;1.10;;;;;;;10.46;74.03;101641.70;1962055;73;21022;-60
2022/05/20 01:29:01;;;;;;;3.70;1.30;;;;;;;10.46;73.92;101639.96;1962027;73;21018;-62
2022/05/20 01:31:30;;;;;;;1.37;1.00;;;;;;;10.45;73.88;101632.95;1962197;73;21473;-61
2022/05/20 01:33:59;;;;;;;4.62;1.47;;;;;;;10.45;73.76;101639.99;1923926;74;21035;-60
2022/05/20 01:36:28;;;;;;;2.80;1.40;;;;;;;10.46;73.71;101647.86;1924086;74;21104;-61
2022/05/20 01:38:59;;;;;;;2.25;0.98;;;;;;;10.47;73.62;101649.57;1923982;74;21023;-64
2022/05/20 01:41:45;;;;;;;2.25;1.20;;;;;;;10.46;73.63;101657.50;1924041;74;21125;-64
2022/05/20 01:44:19;;;;;;;1.62;1.20;;;;;;;10.46;73.64;101646.97;1902090;75;21075;-64
2022/05/20 01:47:07;;;;;;;0.82;0.55;;;;;;;10.45;73.64;101653.16;1929216;73;21029;-64
2022/05/20 01:49:45;;;;;;;3.15;1.60;;;;;;;10.45;73.61;101654.47;1926936;74;21509;-65
2022/05/20 01:52:38;;;;;;;1.98;1.40;;;;;;;10.43;73.60;101659.31;1926505;74;21481;-65
2022/05/20 01:55:18;;;;;;;1.50;1.12;;;;;;;10.45;73.66;101650.52;1927153;74;21505;-64
2022/05/20 01:58:11;;;;;;;2.77;1.22;;;;;;;10.42;73.67;101647.06;1929502;73;21477;-65
2022/05/20 02:00:42;;;;;;;1.50;1.12;;;;;;;10.46;73.63;101654.87;1926684;74;21051;-65
2022/05/20 02:03:17;;;;;;;2.40;1.02;;;;;;;10.47;73.53;101652.67;1926919;74;21015;-64
2022/05/20 02:05:48;;;;;;;3.95;1.07;;;;;;;10.49;73.48;101655.66;1927022;74;21168;-64
2022/05/20 02:08:26;;;;;;;3.10;1.00;;;;;;;10.49;73.44;101653.03;1929314;73;21011;-64
2022/05/20 02:11:03;;;;;;;1.87;0.70;;;;;;;10.50;73.44;101653.46;1926854;74;21305;-64
2022/05/20 02:13:35;;;;;;;1.52;0.85;;;;;;;10.52;73.37;101653.43;1910044;74;21137;-64
2022/05/20 02:16:22;;;;;;;3.72;1.37;;;;;;;10.54;73.36;101655.57;1926929;74;21109;-65
2022/05/20 02:18:53;;;;;;;3.75;1.00;;;;;;;10.55;73.36;101652.02;1928546;73;21019;-65
2022/05/20 02:21:24;;;;;;;2.22;1.22;;;;;;;10.56;73.39;101658.56;1926782;74;21019;-64
2022/05/20 02:23:56;;;;;;;5.05;1.27;;;;;;;10.58;73.34;101658.08;1927136;74;21164;-62
2022/05/20 02:26:28;;;;;;;2.25;1.40;;;;;;;10.61;73.34;101670.32;1927119;74;21019;-59
2022/05/20 02:29:02;;;;;;;2.15;1.17;;;;;;;10.65;73.30;101665.39;1929370;73;21082;-60
2022/05/20 02:31:52;;;;;;;4.03;1.90;;;;;;;10.68;73.32;101671.91;1926943;74;21547;-58
2022/05/20 02:34:21;;;;;;;3.95;1.75;;;;;;;10.72;73.27;101671.38;1926539;74;21031;-69
2022/05/20 02:36:49;;;;;;;3.02;0.98;;;;;;;10.75;73.23;101666.91;1945406;73;20974;-68
2022/05/20 02:39:20;;;;;;;2.27;1.30;;;;;;;10.78;73.25;101681.30;1964665;73;21022;-68
2022/05/20 02:41:49;;;;;;;10.23;6.97;;;;;;;10.79;73.30;101676.45;1964630;73;21034;-68
2022/05/20 02:44:18;;;;;;;2.92;2.27;;;;;;;10.83;73.36;101678.56;1964482;72;21150;-69
2022/05/20 02:46:48;;;;;;;2.22;1.30;;;;;;;10.86;73.38;101680.24;1962010;72;21022;-68
2022/05/20 02:49:16;;;;;;;4.35;1.30;;;;;;;10.91;73.36;101683.63;1964680;73;21018;-69
2022/05/20 02:51:45;;;;;;;1.77;1.17;;;;;;;10.95;73.33;101687.91;1964720;73;21147;-66
2022/05/20 02:54:14;;;;;;;3.67;1.60;;;;;;;10.96;73.33;101683.07;1964657;73;21018;-65
2022/05/20 02:56:42;;;;;;;14.63;3.08;;;;;;;11.01;73.48;101682.47;1962286;73;21100;-65
2022/05/20 03:04:49;;;;;;;2.02;1.50;;;;;;;11.09;73.66;101692.38;1893931;75;21453;-66
2022/05/20 03:07:18;;;;;;;4.20;0.98;;;;;;;11.12;73.78;101693.63;1897054;73;21104;-65
2022/05/20 03:09:46;;;;;;;2.95;1.40;;;;;;;11.14;73.76;101702.36;1898761;74;21148;-67
2022/05/20 03:12:15;;;;;;;3.58;1.27;;;;;;;11.18;73.80;101696.56;1930143;74;21025;-66
2022/05/20 03:14:44;;;;;;;3.47;1.42;;;;;;;11.22;73.95;101699.98;1930118;74;21139;-64
2022/05/20 03:17:13;;;;;;;2.47;1.42;;;;;;;11.25;73.94;101702.09;1930090;74;21046;-69
2022/05/20 03:19:41;;;;;;;3.35;1.10;;;;;;;11.30;73.91;101704.59;1932356;73;21034;-69
2022/05/20 03:22:10;;;;;;;2.70;1.30;;;;;;;11.34;73.88;101702.27;1930086;74;21107;-67
2022/05/20 03:24:39;;;;;;;2.98;1.50;;;;;;;11.37;73.85;101704.84;1930147;74;21103;-68
2022/05/20 03:27:08;;;;;;;4.60;1.12;;;;;;;11.40;73.86;101708.72;1930131;74;21021;-67
2022/05/20 03:29:36;;;;;;;5.62;1.10;;;;;;;11.46;73.78;101709.86;1932513;73;21068;-68
2022/05/20 03:32:06;;;;;;;2.20;1.37;;;;;;;11.50;73.85;101703.59;1930043;74;21014;-68
2022/05/20 03:34:34;;;;;;;1.30;0.90;;;;;;;11.57;73.80;101709.57;1932472;73;21089;-70
2022/05/20 03:37:03;;;;;;;3.12;1.12;;;;;;;11.62;73.71;101708.11;1930093;74;21029;-68
2022/05/20 03:39:35;;;;;;;2.40;1.17;;;;;;;11.68;73.60;101702.22;1932349;73;21001;-68
2022/05/20 03:42:04;;;;;;;1.95;0.88;;;;;;;11.77;73.56;101709.02;1930233;74;21135;-69
2022/05/20 03:44:34;;;;;;;3.80;1.67;;;;;;;11.86;73.45;101702.16;1930031;72;21061;-69
2022/05/20 03:47:04;;;;;;;1.85;0.88;;;;;;;11.95;73.41;101684.77;1929804;74;21124;-68
2022/05/20 03:49:32;;;;;;;6.90;1.50;;;;;;;12.01;73.17;101696.02;1931048;73;21022;-70
2022/05/20 03:52:01;;;;;;;4.20;1.20;;;;;;;12.08;73.08;101696.25;1930652;73;21087;-69
2022/05/20 03:54:35;;;;;;;7.28;2.12;;;;;;;12.13;72.91;101703.59;1930097;74;21026;-68
2022/05/20 03:57:05;;;;;;;2.72;1.47;;;;;;;12.17;72.84;101706.53;1930007;74;21095;-69
2022/05/20 03:59:40;;;;;;;5.37;1.92;;;;;;;12.22;72.81;101698.02;1930066;74;21096;-69
2022/05/20 04:02:07;;;;;;;4.37;1.75;;;;;;;12.27;72.74;101705.36;1932187;73;21108;-66
2022/05/20 04:04:41;;;;;;;3.00;1.30;;;;;;;12.35;72.71;101703.33;1930328;74;21024;-66
2022/05/20 04:07:21;;;;;;;3.25;1.00;;;;;;;12.44;72.49;101706.61;1930170;74;21405;-65
2022/05/20 04:09:50;;;;;;;2.62;1.30;;;;;;;12.54;72.32;101705.39;1930131;74;21031;-64
2022/05/20 04:12:28;;;;;;;3.25;1.62;;;;;;;12.68;72.20;101708.92;1932568;73;21136;-63
2022/05/20 04:14:59;;;;;;;1.98;1.25;;;;;;;12.80;71.92;101701.04;1930232;74;21018;-63
2022/05/20 04:17:28;;;;;;;3.10;0.90;;;;;;;12.95;71.66;101703.20;1930336;74;21001;-62
2022/05/20 04:19:57;;;;;;;3.20;1.37;;;;;;;13.10;71.44;101707.95;1962241;73;21557;-62
2022/05/20 04:22:35;;;;;;;1.82;0.90;;;;;;;13.19;70.90;101704.61;1965200;73;21417;-62
2022/05/20 04:25:05;;;;;;;1.80;1.20;;;;;;;13.23;70.67;101704.89;1963577;73;21022;-62
2022/05/20 04:27:33;;;;;;;6.75;1.47;;;;;;;13.32;70.48;101707.25;1965101;73;21018;-63
2022/05/20 04:30:02;;;;;;;4.10;1.30;;;;;;;13.51;70.45;101710.95;1936655;73;21018;-61
2022/05/20 04:32:31;;;;;;;1.92;1.27;;;;;;;13.64;70.17;101710.52;1930386;74;21026;-62
2022/05/20 04:35:00;;;;;;;3.08;1.27;;;;;;;13.72;69.96;101711.09;1930206;74;21119;-63
2022/05/20 04:37:30;;;;;;;1.82;1.10;;;;;;;13.81;69.86;101709.42;1930211;74;21045;-63
2022/05/20 04:40:01;;;;;;;4.83;1.60;;;;;;;13.88;69.50;101714.05;1932860;73;21432;-63
2022/05/20 04:48:03;;;;;;;2.98;1.25;;;;;;;14.09;68.58;101708.39;1959732;73;21453;-62
2022/05/20 04:50:32;;;;;;;6.47;1.35;;;;;;;14.22;68.73;101704.37;1959749;73;21552;-62
2022/05/20 04:53:00;;;;;;;2.92;1.98;;;;;;;14.40;68.52;101704.55;1967323;72;21108;-62
2022/05/20 04:55:29;;;;;;;3.40;1.00;;;;;;;14.57;67.94;101703.47;1998869;72;21023;-62
2022/05/20 04:57:59;;;;;;;2.20;1.05;;;;;;;14.73;67.49;101706.34;1998719;72;21454;-63
2022/05/20 05:00:30;;;;;;;4.60;1.30;;;;;;;14.81;66.43;101709.55;1998736;72;21007;-62
2022/05/20 05:02:59;;;;;;;7.03;1.05;;;;;;;14.84;65.25;101704.57;1997290;72;21088;-62
2022/05/20 05:05:30;;;;;;;6.60;1.60;;;;;;;14.92;65.12;101709.11;1998565;72;21085;-61
2022/05/20 05:07:59;;;;;;;7.33;2.35;;;;;;;15.02;64.92;101713.08;1998790;72;21024;-62
2022/05/20 05:10:30;;;;;;;3.02;2.30;;;;;;;15.15;65.10;101701.96;1998666;72;21509;-62
2022/05/20 05:13:00;;;;;;;1.92;1.60;;;;;;;15.26;64.85;101707.66;1998711;72;21015;-68
2022/05/20 05:15:29;;;;;;;3.92;1.22;;;;;;;15.30;63.87;101703.94;1998729;72;21532;-68
2022/05/20 05:18:12;;;;;;;4.90;1.20;;;;;;;15.36;63.70;101711.66;1994269;72;21035;-66
2022/05/20 05:20:47;;;;;;;3.95;1.22;;;;;;;15.47;63.89;101712.95;1959874;73;21026;-67
2022/05/20 05:23:17;;;;;;;2.98;1.25;;;;;;;15.50;62.88;101708.37;1959693;73;21047;-67
2022/05/20 05:25:46;;;;;;;2.22;1.40;;;;;;;15.58;62.18;101706.70;1976508;72;21031;-67
2022/05/20 05:28:16;;;;;;;2.80;1.27;;;;;;;15.75;62.46;101712.17;1998631;72;21477;-66
2022/05/20 05:30:50;;;;;;;1.60;1.10;;;;;;;15.88;61.76;101710.26;1998592;72;21462;-69
2022/05/20 05:33:21;;;;;;;2.33;1.00;;;;;;;16.09;61.83;101709.27;1998500;72;21003;-67
2022/05/20 05:35:50;;;;;;;2.72;1.00;;;;;;;16.34;59.51;101693.48;1995865;72;21019;-64
2022/05/20 05:38:19;;;;;;;5.28;1.27;;;;;;;16.49;57.48;101694.09;1998615;71;21024;-65
2022/05/20 05:40:48;;;;;;;8.40;1.17;;;;;;;16.56;55.58;101691.53;1998585;72;21023;-66
2022/05/20 05:43:16;;;;;;;1.92;0.90;;;;;;;16.60;55.84;101705.06;1998691;72;21128;-66
2022/05/20 05:45:45;;;;;;;2.83;0.70;;;;;;;16.73;56.01;101696.48;1998283;72;21059;-62
2022/05/20 05:48:15;;;;;;;4.55;1.15;;;;;;;16.84;56.71;101706.59;1935284;74;21558;-64
2022/05/20 05:50:44;;;;;;;1.30;0.80;;;;;;;17.00;56.91;101702.70;1935375;74;21034;-69
2022/05/20 05:53:19;;;;;;;2.98;1.05;;;;;;;17.49;56.35;101716.16;1935242;74;21037;-70
2022/05/20 05:55:50;;;;;;;2.83;1.10;;;;;;;17.66;54.64;101697.94;1935252;74;21143;-69
2022/05/20 05:58:21;;;;;;;4.53;0.90;;;;;;;17.77;54.87;101706.21;1970218;72;21010;-71
2022/05/20 06:00:49;;;;;;;3.52;0.90;;;;;;;18.10;54.23;101698.20;1969916;73;21011;-73
2022/05/20 06:03:18;;;;;;;1.20;0.68;;;;;;;18.14;54.07;101701.56;1970132;73;21010;-70
2022/05/20 06:05:47;;;;;;;2.35;0.80;;;;;;;18.20;54.24;101709.20;1970086;73;21006;-69
2022/05/20 06:08:16;;;;;;;3.85;1.47;;;;;;;18.21;53.54;101704.75;1969917;73;21046;-68
2022/05/20 06:10:48;;;;;;;2.20;0.93;;;;;;;18.70;53.81;101707.27;1969824;73;21579;-72
2022/05/20 06:13:28;;;;;;;3.58;1.02;;;;;;;19.28;53.13;101710.54;2001829;72;21051;-72
2022/05/20 06:15:58;;;;;;;1.32;1.02;;;;;;;19.84;52.02;101705.84;2002555;72;21161;-69
2022/05/20 06:18:28;;;;;;;2.60;1.82;;;;;;;19.96;47.97;101706.41;2002878;72;21090;-64
2022/05/20 06:20:57;;;;;;;1.77;1.02;;;;;;;20.04;47.24;101700.08;2002842;72;21519;-68
2022/05/20 06:23:26;;;;;;;1.65;0.88;;;;;;;20.37;47.59;101702.03;2000229;71;21087;-69
2022/05/20 06:25:56;;;;;;;0.72;0.72;;;;;;;20.59;48.10;101705.00;2002810;72;21511;-69
2022/05/20 06:28:24;;;;;;;1.42;0.98;;;;;;;21.03;47.11;101700.35;2002964;72;21110;-68
2022/05/20 06:30:53;;;;;;;1.67;0.60;;;;;;;21.14;44.88;101690.25;2002746;72;21034;-68
2022/05/20 06:33:22;;;;;;;1.22;0.80;;;;;;;21.32;45.42;101693.45;2002870;72;21030;-69
2022/05/20 06:41:24;;;;;;;2.40;0.93;;;;;;;22.05;45.06;101691.92;1935211;73;21073;-67
2022/05/20 06:43:52;;;;;;;2.22;0.72;;;;;;;21.55;43.60;101691.89;1935233;74;21013;-68
2022/05/20 06:46:21;;;;;;;1.85;1.05;;;;;;;21.47;44.17;101687.54;1931634;73;21131;-68
2022/05/20 06:48:53;;;;;;;2.85;1.45;;;;;;;21.72;43.54;101698.73;1961431;72;21035;-67
2022/05/20 06:51:24;;;;;;;3.25;0.70;;;;;;;21.48;42.92;101694.14;1959561;73;21042;-67
2022/05/20 06:53:55;;;;;;;3.50;0.95;;;;;;;21.14;43.92;101709.84;1959543;73;21116;-67
2022/05/20 06:56:27;;;;;;;2.25;1.10;;;;;;;20.81;43.78;101700.45;1959424;73;21453;-67
2022/05/20 06:58:57;;;;;;;2.62;1.10;;;;;;;20.40;44.41;101696.49;1959758;73;21175;-64
2022/05/20 07:01:26;;;;;;;2.05;0.80;;;;;;;20.05;45.50;101679.58;1959783;72;21096;-60
2022/05/20 07:03:55;;;;;;;1.50;1.02;;;;;;;20.11;46.19;101688.53;1952185;73;21524;-67
2022/05/20 07:06:25;;;;;;;3.98;1.12;;;;;;;20.26;45.76;101706.73;1951948;73;21032;-68
2022/05/20 07:08:54;;;;;;;2.98;0.90;;;;;;;20.05;45.37;101719.19;1959247;73;21530;-65
2022/05/20 07:11:25;;;;;;;2.22;0.85;;;;;;;19.74;46.29;101713.58;1959507;73;21050;-64
2022/05/20 07:13:56;;;;;;;3.92;1.32;;;;;;;19.42;47.52;101728.87;1962168;72;21022;-64
2022/05/20 07:16:26;;;;;;;1.87;0.88;;;;;;;19.31;47.22;101712.64;1959663;73;21108;-63
2022/05/20 07:18:55;;;;;;;1.15;1.00;;;;;;;19.19;48.04;101725.78;1961190;72;21469;-66
2022/05/20 07:21:23;;;;;;;6.10;1.02;;;;;;;19.07;48.49;101731.84;1982404;72;21028;-66
2022/05/20 07:23:52;;;;;;;0.82;0.65;;;;;;;19.00;48.52;101737.18;1990791;71;21093;-66
2022/05/20 07:26:21;;;;;;;4.05;1.20;;;;;;;19.09;48.50;101722.81;1998547;72;21551;-65
2022/05/20 07:28:50;;;;;;;1.55;0.80;;;;;;;19.27;48.33;101736.88;1998555;72;21027;-65
2022/05/20 07:31:23;;;;;;;2.17;1.20;;;;;;;19.37;48.85;101726.98;1998503;72;21199;-64
2022/05/20 07:33:48;;;;;;;2.25;1.02;;;;;;;19.37;48.51;101738.99;1995106;72;21030;-64
2022/05/20 07:36:17;;;;;;;1.55;1.00;;;;;;;19.34;48.30;101728.48;1998437;72;21031;-64
2022/05/20 07:38:46;;;;;;;2.15;0.88;;;;;;;19.27;48.27;101739.55;1998683;72;20999;-66
2022/05/20 07:41:15;;;;;;;1.70;0.90;;;;;;;19.21;48.65;101745.72;1998693;72;21113;-67
2022/05/20 07:43:43;;;;;;;6.20;1.12;;;;;;;19.24;48.70;101760.23;1995890;72;21163;-65
2022/05/20 07:46:12;;;;;;;1.70;1.00;;;;;;;19.10;49.03;101739.67;1998604;71;21097;-67
2022/05/20 07:48:41;;;;;;;1.75;0.90;;;;;;;18.97;49.17;101758.70;1998648;72;21105;-63
2022/05/20 07:51:15;;;;;;;1.90;1.20;;;;;;;18.83;49.35;101747.48;1985899;72;21026;-63
2022/05/20 07:53:52;;;;;;;14.30;1.32;;;;;;;18.56;49.03;101741.91;1959718;73;21038;-63
2022/05/20 07:56:26;;;;;;;3.40;0.93;;;;;;;18.29;49.78;101750.49;1958309;73;21493;-62
2022/05/20 07:59:02;;;;;;;3.83;0.88;;;;;;;18.20;50.04;101752.33;1959729;73;21018;-64
2022/05/20 08:01:33;;;;;;;3.40;1.20;;;;;;;18.24;50.55;101760.55;1960441;72;20990;-63
2022/05/20 08:06:53;;;;;;;3.02;1.10;;;;;;;18.45;50.06;101767.36;1953569;73;21011;-57
2022/05/20 08:09:22;;;;;;;1.62;0.70;;;;;;;18.55;49.63;101764.17;1959569;73;21437;-58
2022/05/20 08:11:51;;;;;;;3.17;1.07;;;;;;;18.41;49.47;101764.48;1962231;72;21125;-58
2022/05/20 08:14:20;;;;;;;1.65;0.95;;;;;;;18.32;50.06;101759.66;1959601;73;21543;-58
2022/05/20 08:16:48;;;;;;;4.08;1.52;;;;;;;18.28;50.28;101767.45;1959612;73;21058;-57
2022/05/20 08:19:17;;;;;;;5.95;2.72;;;;;;;18.50;50.16;101727.97;1966963;72;21090;-58
2022/05/20 08:21:46;;;;;;;11.65;3.25;;;;;;;18.56;49.45;101740.58;1982530;72;21094;-65
2022/05/20 08:24:14;;;;;;;11.43;4.42;;;;;;;18.59;49.55;101733.27;1997282;72;21003;-59
2022/05/20 08:26:43;;;;;;;45.85;13.85;;;;;;;18.54;49.92;101759.81;1998573;72;21097;-65
2022/05/20 08:29:12;;;;;;;10.68;4.10;;;;;;;18.46;50.50;101730.42;1998593;72;21011;-64
2022/05/20 08:31:42;;;;;;;5.00;1.47;;;;;;;18.38;50.55;101741.98;1998860;72;21023;-61
2022/05/20 08:34:11;;;;;;;11.57;3.02;;;;;;;18.34;50.70;101755.10;1998724;72;21089;-62
2022/05/20 08:36:40;;;;;;;17.52;7.37;;;;;;;18.20;50.90;101759.00;1996009;72;21526;-58
2022/05/20 08:39:12;;;;;;;4.90;1.47;;;;;;;18.27;51.13;101736.39;1925604;74;21069;-58
2022/05/20 08:41:44;;;;;;;5.40;2.25;;;;;;;18.51;50.92;101745.67;1925686;74;21026;-59
2022/05/20 08:44:15;;;;;;;7.37;2.33;;;;;;;19.02;50.12;101728.61;1924955;74;21488;-60
2022/05/20 08:46:44;;;;;;;4.90;1.70;;;;;;;19.29;49.36;101733.64;1925556;74;21038;-60
2022/05/20 08:49:17;;;;;;;3.65;1.75;;;;;;;19.35;49.55;101758.23;1966711;72;21581;-58
2022/05/20 08:51:55;;;;;;;6.30;1.80;;;;;;;20.00;48.76;101757.38;1965235;73;21116;-58
2022/05/20 08:54:23;;;;;;;2.65;1.15;;;;;;;20.24;46.75;101756.79;1966263;73;21515;-58
2022/05/20 08:56:53;;;;;;;6.60;1.37;;;;;;;19.94;47.36;101743.07;1969271;72;21026;-58
2022/05/20 08:59:23;;;;;;;10.63;4.05;;;;;;;20.46;47.59;101761.62;1988439;72;21474;-60
2022/05/20 09:01:53;;;;;;;9.98;3.27;;;;;;;20.63;47.05;101760.06;2002381;72;21019;-59
2022/05/20 09:04:24;;;;;;;5.08;1.32;;;;;;;20.53;46.82;101759.42;2002362;72;21430;-59
2022/05/20 09:07:08;;;;;;;4.12;1.57;;;;;;;20.33;47.39;101756.20;2002412;72;21019;-60
2022/05/20 09:09:49;;;;;;;3.75;2.02;;;;;;;20.20;47.35;101760.62;1998210;72;21063;-59
2022/05/20 09:12:31;;;;;;;3.30;1.50;;;;;;;20.12;47.89;101755.77;2002500;72;21015;-57
2022/05/20 09:18:07;;;;;;;5.03;1.62;;;;;;;19.68;48.91;101743.33;2002385;72;21019;-58
2022/05/20 09:20:39;;;;;;;3.20;1.20;;;;;;;19.49;47.74;101727.55;2002378;72;21015;-60
2022/05/20 09:23:08;;;;;;;7.05;1.60;;;;;;;19.27;48.52;101730.66;1995016;72;21125;-58
2022/05/20 09:25:38;;;;;;;3.45;1.30;;;;;;;19.43;48.10;101720.77;1980643;72;20991;-58
2022/05/20 09:28:25;;;;;;;3.87;1.40;;;;;;;19.85;46.77;101736.97;1998789;72;21089;-59
2022/05/20 09:30:57;;;;;;;4.17;1.50;;;;;;;20.33;45.81;101731.28;2002173;72;21051;-60
2022/05/20 09:33:29;;;;;;;4.08;1.60;;;;;;;20.36;45.47;101717.23;1998621;72;21415;-58
2022/05/20 09:36:00;;;;;;;4.28;1.47;;;;;;;20.34;44.99;101724.95;2002355;72;21019;-59
2022/05/20 09:38:41;;;;;;;3.25;1.67;;;;;;;20.77;44.19;101730.22;2002542;72;21003;-59
2022/05/20 09:41:12;;;;;;;4.22;2.30;;;;;;;21.12;43.75;101722.48;2002302;72;21078;-59
2022/05/20 09:43:44;;;;;;;6.35;1.75;;;;;;;21.36;42.09;101711.05;1994850;72;21509;-59
2022/05/20 09:46:15;;;;;;;5.25;1.70;;;;;;;21.45;42.71;101726.52;2002400;72;21026;-59
2022/05/20 09:49:14;;;;;;;2.67;1.30;;;;;;;21.72;43.02;101714.81;1977079;71;21053;-58
2022/05/20 09:51:48;;;;;;;2.62;1.60;;;;;;;21.71;41.84;101741.27;1962099;73;21053;-58
2022/05/20 09:54:23;;;;;;;2.20;1.35;;;;;;;21.61;41.52;101716.06;1959827;73;21042;-58
2022/05/20 09:57:01;;;;;;;2.42;1.17;;;;;;;21.57;41.50;101712.25;1962452;73;21033;-59
2022/05/20 09:59:35;;;;;;;2.65;1.45;;;;;;;21.57;41.96;101717.61;1961838;73;21441;-59
2022/05/20 10:02:06;;;;;;;3.05;1.47;;;;;;;21.76;42.51;101711.83;1962116;73;21479;-58
2022/05/20 10:04:53;;;;;;;5.97;1.50;;;;;;;21.96;41.33;101721.59;1962204;73;21026;-58
2022/05/20 10:07:41;;;;;;;2.00;1.22;;;;;;;21.84;41.19;101696.53;1962236;73;21069;-58
2022/05/20 10:10:13;;;;;;;1.82;1.05;;;;;;;21.88;42.01;101685.11;1959802;73;21515;-59
2022/05/20 10:12:44;;;;;;;3.70;1.40;;;;;;;21.89;42.23;101708.25;1960373;73;21237;-59
2022/05/20 10:15:24;;;;;;;3.30;1.80;;;;;;;21.84;42.21;101713.08;1962215;73;21413;-58
2022/05/20 10:18:14;;;;;;;2.85;1.40;;;;;;;21.78;41.97;101710.35;1962264;73;21456;-58
2022/05/20 10:20:58;;;;;;;4.03;1.02;;;;;;;21.84;41.63;101701.89;1959188;73;21026;-59
2022/05/20 10:23:52;;;;;;;1.22;0.90;;;;;;;21.60;41.83;101708.52;1962368;73;21030;-58
2022/05/20 10:26:24;;;;;;;1.60;0.80;;;;;;;21.74;42.69;101708.37;1962120;73;21519;-60
2022/05/20 10:34:50;;;;;;;2.02;1.12;;;;;;;21.54;42.74;101709.80;1894607;76;21076;-58
2022/05/20 10:37:24;;;;;;;5.62;1.10;;;;;;;21.29;42.48;101678.95;1894771;76;21029;-58
2022/05/20 10:40:18;;;;;;;2.25;1.60;;;;;;;21.33;43.57;101708.58;1897207;73;21818;-58
2022/05/20 10:43:11;;;;;;;0.93;0.60;;;;;;;21.15;42.97;101691.95;1962206;73;21539;-59
2022/05/20 10:48:53;;;;;;;3.17;0.82;;;;;;;21.33;42.83;101685.81;1934498;73;21206;-59
2022/05/20 10:51:27;;;;;;;3.05;0.82;;;;;;;21.05;43.13;101702.44;1929141;74;21468;-60
2022/05/20 10:53:59;;;;;;;3.15;0.90;;;;;;;20.81;44.06;101694.25;1930011;74;21025;-59
2022/05/20 10:56:45;;;;;;;2.47;1.00;;;;;;;20.71;44.22;101695.36;1932226;73;21045;-59
2022/05/20 10:59:20;;;;;;;1.17;0.85;;;;;;;20.71;44.53;101691.34;1930034;74;21088;-60
2022/05/20 11:02:07;;;;;;;3.08;1.72;;;;;;;20.80;45.37;101686.71;1929532;74;21096;-60
2022/05/20 11:04:53;;;;;;;6.58;1.10;;;;;;;20.68;45.15;101687.52;1922342;74;21472;-59
2022/05/20 11:07:27;;;;;;;2.45;1.12;;;;;;;20.51;45.97;101707.34;1930051;74;21103;-60
2022/05/20 11:10:14;;;;;;;2.17;0.90;;;;;;;20.49;46.33;101678.95;1931215;73;21460;-60
2022/05/20 11:12:49;;;;;;;1.40;0.60;;;;;;;20.52;46.18;101704.17;1930155;74;21041;-62
2022/05/20 11:15:36;;;;;;;7.95;1.00;;;;;;;20.21;46.19;101684.77;1930078;74;21574;-58
2022/05/20 11:18:11;;;;;;;1.87;1.10;;;;;;;20.13;46.27;101705.81;1932433;73;21042;-58
2022/05/20 11:20:49;;;;;;;1.92;0.93;;;;;;;19.93;46.72;101709.27;1930253;74;21053;-59
2022/05/20 11:23:20;;;;;;;2.37;1.07;;;;;;;19.82;47.00;101703.74;1928649;73;21025;-60
2022/05/20 11:26:17;;;;;;;4.28;1.32;;;;;;;19.89;47.19;101703.73;1930201;74;21061;-58
2022/05/20 11:29:16;;;;;;;5.37;1.75;;;;;;;19.92;47.06;101656.78;1932461;73;21084;-59
2022/05/20 11:31:51;;;;;;;3.05;1.10;;;;;;;19.68;47.34;101653.83;1930050;74;21017;-60
2022/05/20 11:34:39;;;;;;;2.00;1.30;;;;;;;19.82;47.14;101684.55;1929704;74;21010;-58
2022/05/20 11:40:19;;;;;;;2.75;1.05;;;;;;;19.90;47.42;101693.44;1848168;78;21058;-58
2022/05/20 11:43:25;;;;;;;3.47;0.90;;;;;;;19.92;47.07;101670.15;1842406;76;21203;-58
2022/05/20 11:46:12;;;;;;;2.30;1.10;;;;;;;19.80;47.09;101669.58;1817617;79;21050;-59
2022/05/20 11:49:06;;;;;;;1.90;0.98;;;;;;;19.77;47.21;101675.98;1837446;78;21082;-59
2022/05/20 11:51:48;;;;;;;2.95;1.30;;;;;;;19.83;47.16;101693.45;1847158;78;21465;-59
2022/05/20 11:54:34;;;;;;;5.03;0.95;;;;;;;19.79;46.87;101674.53;1831101;76;21023;-58
2022/05/20 11:57:07;;;;;;;2.20;1.22;;;;;;;19.66;47.50;101668.61;1817406;79;21079;-58
2022/05/20 11:59:41;;;;;;;1.05;0.82;;;;;;;19.61;47.47;101675.20;1817822;78;21026;-59
2022/05/20 12:02:14;;;;;;;6.03;1.10;;;;;;;19.55;48.03;101652.40;1813929;79;21079;-58
2022/05/20 12:04:44;;;;;;;5.60;1.37;;;;;;;19.59;47.83;101659.26;1818345;78;21560;-59
2022/05/20 12:07:16;;;;;;;3.08;1.02;;;;;;;19.66;47.92;101661.93;1817714;79;21157;-60
2022/05/20 12:09:50;;;;;;;9.95;1.37;;;;;;;19.67;47.70;101670.31;1817912;79;21528;-59
2022/05/20 12:12:24;;;;;;;1.50;0.93;;;;;;;19.60;47.62;101663.63;1817706;79;21493;-59
2022/05/20 12:15:04;;;;;;;2.02;1.22;;;;;;;19.60;48.16;101655.61;1819804;78;21050;-60
2022/05/20 12:17:41;;;;;;;4.40;1.15;;;;;;;19.70;48.09;101651.03;1817573;79;21047;-59
2022/05/20 12:26:00;;;;;;;4.90;1.00;;;;;;;19.81;47.71;101679.33;1819567;78;20137;-58
2022/05/20 12:28:35;;;;;;;2.87;1.22;;;;;;;19.81;48.11;101691.35;1817667;79;21063;-58
2022/05/20 12:31:25;;;;;;;4.00;1.05;;;;;;;19.77;47.91;101667.97;1817785;79;21541;-60